sensor_id;sensor_type;location;lat;lon;timestamp;temperature;humidity
1083;DHT22;530;51.448;7.238;2022-09-24T00:02:00;14.70;99.90
1083;DHT22;530;51.448;7.238;2022-09-24T00:04:26;14.60;99.90
1083;DHT22;530;51.448;7.238;2022-09-24T00:06:52;14.60;99.90
1083;DHT22;530;51.448;7.238;2022-09-24T00:09:21;14.60;99.90
1083;DHT22;530;51.448;7.238;2022-09-24T00:11:48;14.60;99.90
1083;DHT22;530;51.448;7.238;2022-09-24T00:14:15;14.60;99.90
1083;DHT22;530;51.448;7.238;2022-09-24T00:16:43;14.60;99.90
1083;DHT22;530;51.448;7.238;2022-09-24T00:19:11;14.60;99.90
1083;DHT22;530;51.448;7.238;2022-09-24T00:21:38;14.50;99.90
1083;DHT22;530;51.448;7.238;2022-09-24T00:24:16;14.60;99.90
1083;DHT22;530;51.448;7.238;2022-09-24T00:27:02;14.50;99.90
1083;DHT22;530;51.448;7.238;2022-09-24T00:29:28;14.50;99.90
1083;DHT22;530;51.448;7.238;2022-09-24T00:31:55;14.50;99.90
1083;DHT22;530;51.448;7.238;2022-09-24T00:34:21;14.50;99.90
1083;DHT22;530;51.448;7.238;2022-09-24T00:36:46;14.50;99.90
1083;DHT22;530;51.448;7.238;2022-09-24T00:39:13;14.50;99.90
1083;DHT22;530;51.448;7.238;2022-09-24T00:41:40;14.50;99.90
1083;DHT22;530;51.448;7.238;2022-09-24T00:47:02;14.40;99.90
1083;DHT22;530;51.448;7.238;2022-09-24T00:49:28;14.40;99.90
1083;DHT22;530;51.448;7.238;2022-09-24T00:51:54;14.40;99.90
1083;DHT22;530;51.448;7.238;2022-09-24T00:54:24;14.30;99.90
1083;DHT22;530;51.448;7.238;2022-09-24T00:56:52;14.30;99.90
1083;DHT22;530;51.448;7.238;2022-09-24T00:59:20;14.20;99.90
1083;DHT22;530;51.448;7.238;2022-09-24T01:01:49;14.20;99.90
1083;DHT22;530;51.448;7.238;2022-09-24T01:04:18;14.20;99.90
1083;DHT22;530;51.448;7.238;2022-09-24T01:06:48;14.20;99.90
1083;DHT22;530;51.448;7.238;2022-09-24T01:09:15;14.20;99.90
1083;DHT22;530;51.448;7.238;2022-09-24T01:23:42;14.10;99.90
1083;DHT22;530;51.448;7.238;2022-09-24T01:26:43;14.10;99.90
1083;DHT22;530;51.448;7.238;2022-09-24T01:29:27;14.10;99.90
1083;DHT22;530;51.448;7.238;2022-09-24T01:32:10;14.10;99.90
1083;DHT22;530;51.448;7.238;2022-09-24T01:34:51;14.10;99.90
1083;DHT22;530;51.448;7.238;2022-09-24T01:37:22;14.20;99.90
1083;DHT22;530;51.448;7.238;2022-09-24T01:39:51;14.20;99.90
1083;DHT22;530;51.448;7.238;2022-09-24T01:42:18;14.30;99.90
1083;DHT22;530;51.448;7.238;2022-09-24T01:44:45;14.30;99.90
1083;DHT22;530;51.448;7.238;2022-09-24T01:47:29;14.30;99.90
1083;DHT22;530;51.448;7.238;2022-09-24T01:49:55;14.30;99.90
1083;DHT22;530;51.448;7.238;2022-09-24T01:52:25;14.30;99.90
1083;DHT22;530;51.448;7.238;2022-09-24T01:54:55;14.30;99.90
1083;DHT22;530;51.448;7.238;2022-09-24T01:57:22;14.30;99.90
1083;DHT22;530;51.448;7.238;2022-09-24T02:00:05;14.20;99.90
1083;DHT22;530;51.448;7.238;2022-09-24T02:02:38;14.20;99.90
1083;DHT22;530;51.448;7.238;2022-09-24T02:05:18;14.20;99.90
1083;DHT22;530;51.448;7.238;2022-09-24T02:08:22;14.20;99.90
1083;DHT22;530;51.448;7.238;2022-09-24T02:13:31;14.10;99.90
1083;DHT22;530;51.448;7.238;2022-09-24T02:16:01;14.10;99.90
1083;DHT22;530;51.448;7.238;2022-09-24T02:18:35;14.10;99.90
1083;DHT22;530;51.448;7.238;2022-09-24T02:21:07;14.10;99.90
1083;DHT22;530;51.448;7.238;2022-09-24T02:23:35;14.00;99.90
1083;DHT22;530;51.448;7.238;2022-09-24T02:26:03;14.00;99.90
1083;DHT22;530;51.448;7.238;2022-09-24T02:28:30;14.00;99.90
1083;DHT22;530;51.448;7.238;2022-09-24T02:31:08;13.90;99.90
1083;DHT22;530;51.448;7.238;2022-09-24T02:33:37;13.90;99.90
1083;DHT22;530;51.448;7.238;2022-09-24T02:36:23;13.90;99.90
1083;DHT22;530;51.448;7.238;2022-09-24T02:38:50;13.90;99.90
1083;DHT22;530;51.448;7.238;2022-09-24T02:41:16;13.90;99.90
1083;DHT22;530;51.448;7.238;2022-09-24T02:43:42;13.90;99.90
1083;DHT22;530;51.448;7.238;2022-09-24T02:46:08;13.80;99.90
1083;DHT22;530;51.448;7.238;2022-09-24T02:48:35;13.80;99.90
1083;DHT22;530;51.448;7.238;2022-09-24T02:51:04;13.90;99.90
1083;DHT22;530;51.448;7.238;2022-09-24T02:53:31;13.90;99.90
1083;DHT22;530;51.448;7.238;2022-09-24T02:55:57;13.90;99.90
1083;DHT22;530;51.448;7.238;2022-09-24T02:58:26;13.90;99.90
1083;DHT22;530;51.448;7.238;2022-09-24T03:00:52;13.90;99.90
1083;DHT22;530;51.448;7.238;2022-09-24T03:03:19;13.90;99.90
1083;DHT22;530;51.448;7.238;2022-09-24T03:05:45;14.00;99.90
1083;DHT22;530;51.448;7.238;2022-09-24T03:08:11;13.90;99.90
1083;DHT22;530;51.448;7.238;2022-09-24T03:10:37;14.00;99.90
1083;DHT22;530;51.448;7.238;2022-09-24T03:13:03;14.00;99.90
1083;DHT22;530;51.448;7.238;2022-09-24T03:15:29;14.00;99.90
1083;DHT22;530;51.448;7.238;2022-09-24T03:17:55;14.00;99.90
1083;DHT22;530;51.448;7.238;2022-09-24T03:20:21;14.10;99.90
1083;DHT22;530;51.448;7.238;2022-09-24T03:22:50;14.10;99.90
1083;DHT22;530;51.448;7.238;2022-09-24T03:25:16;14.10;99.90
1083;DHT22;530;51.448;7.238;2022-09-24T03:27:42;14.00;99.90
1083;DHT22;530;51.448;7.238;2022-09-24T03:30:08;14.10;99.90
1083;DHT22;530;51.448;7.238;2022-09-24T03:32:52;14.00;99.90
1083;DHT22;530;51.448;7.238;2022-09-24T03:35:18;14.10;99.90
1083;DHT22;530;51.448;7.238;2022-09-24T03:37:45;14.00;99.90
1083;DHT22;530;51.448;7.238;2022-09-24T03:40:11;14.00;99.90
1083;DHT22;530;51.448;7.238;2022-09-24T03:42:36;14.10;99.90
1083;DHT22;530;51.448;7.238;2022-09-24T03:45:03;14.10;99.90
1083;DHT22;530;51.448;7.238;2022-09-24T03:47:28;14.00;99.90
1083;DHT22;530;51.448;7.238;2022-09-24T03:49:55;14.00;99.90
1083;DHT22;530;51.448;7.238;2022-09-24T03:52:21;14.00;99.90
1083;DHT22;530;51.448;7.238;2022-09-24T03:54:47;13.90;99.90
1083;DHT22;530;51.448;7.238;2022-09-24T03:57:13;14.00;99.90
1083;DHT22;530;51.448;7.238;2022-09-24T03:59:42;14.00;99.90
1083;DHT22;530;51.448;7.238;2022-09-24T04:02:09;14.10;99.90
1083;DHT22;530;51.448;7.238;2022-09-24T04:04:35;14.00;99.90
1083;DHT22;530;51.448;7.238;2022-09-24T04:07:00;14.00;99.90
1083;DHT22;530;51.448;7.238;2022-09-24T04:09:26;14.00;99.90
1083;DHT22;530;51.448;7.238;2022-09-24T04:11:52;14.00;99.90
1083;DHT22;530;51.448;7.238;2022-09-24T04:14:18;13.90;99.90
1083;DHT22;530;51.448;7.238;2022-09-24T04:16:44;13.90;99.90
1083;DHT22;530;51.448;7.238;2022-09-24T04:19:13;13.80;99.90
1083;DHT22;530;51.448;7.238;2022-09-24T04:21:44;13.80;99.90
1083;DHT22;530;51.448;7.238;2022-09-24T04:24:10;13.80;99.90
1083;DHT22;530;51.448;7.238;2022-09-24T04:26:36;13.80;99.90
1083;DHT22;530;51.448;7.238;2022-09-24T04:29:02;13.70;99.90
1083;DHT22;530;51.448;7.238;2022-09-24T04:31:28;13.70;99.90
1083;DHT22;530;51.448;7.238;2022-09-24T04:33:57;13.60;99.90
1083;DHT22;530;51.448;7.238;2022-09-24T04:36:22;13.50;99.90
1083;DHT22;530;51.448;7.238;2022-09-24T04:38:48;13.40;99.90
1083;DHT22;530;51.448;7.238;2022-09-24T04:41:15;13.40;99.90
1083;DHT22;530;51.448;7.238;2022-09-24T04:43:41;13.50;99.90
1083;DHT22;530;51.448;7.238;2022-09-24T04:46:08;13.40;99.90
1083;DHT22;530;51.448;7.238;2022-09-24T04:48:35;13.40;99.90
1083;DHT22;530;51.448;7.238;2022-09-24T04:51:04;13.40;99.90
1083;DHT22;530;51.448;7.238;2022-09-24T04:53:31;13.50;99.90
1083;DHT22;530;51.448;7.238;2022-09-24T04:55:57;13.50;99.90
1083;DHT22;530;51.448;7.238;2022-09-24T04:58:25;13.50;99.90
1083;DHT22;530;51.448;7.238;2022-09-24T05:00:51;13.50;99.90
1083;DHT22;530;51.448;7.238;2022-09-24T05:03:18;13.50;99.90
1083;DHT22;530;51.448;7.238;2022-09-24T05:05:46;13.50;99.90
1083;DHT22;530;51.448;7.238;2022-09-24T05:08:13;13.50;99.90
1083;DHT22;530;51.448;7.238;2022-09-24T05:10:39;13.50;99.90
1083;DHT22;530;51.448;7.238;2022-09-24T05:13:04;13.50;99.90
1083;DHT22;530;51.448;7.238;2022-09-24T05:15:30;13.50;99.90
1083;DHT22;530;51.448;7.238;2022-09-24T05:17:56;13.60;99.90
1083;DHT22;530;51.448;7.238;2022-09-24T05:20:22;13.50;99.90
1083;DHT22;530;51.448;7.238;2022-09-24T05:22:48;13.60;99.90
1083;DHT22;530;51.448;7.238;2022-09-24T05:25:16;13.60;99.90
1083;DHT22;530;51.448;7.238;2022-09-24T05:27:46;13.60;99.90
1083;DHT22;530;51.448;7.238;2022-09-24T05:30:13;13.60;99.90
1083;DHT22;530;51.448;7.238;2022-09-24T05:32:39;13.50;99.90
1083;DHT22;530;51.448;7.238;2022-09-24T05:35:05;13.50;99.90
1083;DHT22;530;51.448;7.238;2022-09-24T05:37:33;13.50;99.90
1083;DHT22;530;51.448;7.238;2022-09-24T05:39:59;13.50;99.90
1083;DHT22;530;51.448;7.238;2022-09-24T05:42:44;13.50;99.90
1083;DHT22;530;51.448;7.238;2022-09-24T05:45:11;13.50;99.90
1083;DHT22;530;51.448;7.238;2022-09-24T05:47:37;13.50;99.90
1083;DHT22;530;51.448;7.238;2022-09-24T05:50:03;13.50;99.90
1083;DHT22;530;51.448;7.238;2022-09-24T05:52:29;13.40;99.90
1083;DHT22;530;51.448;7.238;2022-09-24T05:54:54;13.40;99.90
1083;DHT22;530;51.448;7.238;2022-09-24T05:57:20;13.40;99.90
1083;DHT22;530;51.448;7.238;2022-09-24T05:59:46;13.40;99.90
1083;DHT22;530;51.448;7.238;2022-09-24T06:02:11;13.40;99.90
1083;DHT22;530;51.448;7.238;2022-09-24T06:04:37;13.40;99.90
1083;DHT22;530;51.448;7.238;2022-09-24T06:07:03;13.40;99.90
1083;DHT22;530;51.448;7.238;2022-09-24T06:09:28;13.40;99.90
1083;DHT22;530;51.448;7.238;2022-09-24T06:11:54;13.50;99.90
1083;DHT22;530;51.448;7.238;2022-09-24T06:14:21;13.60;99.90
1083;DHT22;530;51.448;7.238;2022-09-24T06:16:46;13.60;99.90
1083;DHT22;530;51.448;7.238;2022-09-24T06:19:12;13.70;99.90
1083;DHT22;530;51.448;7.238;2022-09-24T06:21:38;13.70;99.90
1083;DHT22;530;51.448;7.238;2022-09-24T06:24:03;13.80;99.90
1083;DHT22;530;51.448;7.238;2022-09-24T06:26:29;13.80;99.90
1083;DHT22;530;51.448;7.238;2022-09-24T06:28:55;13.70;99.90
1083;DHT22;530;51.448;7.238;2022-09-24T06:31:21;13.70;99.90
1083;DHT22;530;51.448;7.238;2022-09-24T06:33:46;13.70;99.90
1083;DHT22;530;51.448;7.238;2022-09-24T06:36:12;13.80;99.90
1083;DHT22;530;51.448;7.238;2022-09-24T06:38:38;13.80;99.90
1083;DHT22;530;51.448;7.238;2022-09-24T06:41:05;13.90;99.90
1083;DHT22;530;51.448;7.238;2022-09-24T06:43:32;13.80;99.90
1083;DHT22;530;51.448;7.238;2022-09-24T06:45:59;13.80;99.90
1083;DHT22;530;51.448;7.238;2022-09-24T06:48:26;13.90;99.90
1083;DHT22;530;51.448;7.238;2022-09-24T06:50:52;13.90;99.90
1083;DHT22;530;51.448;7.238;2022-09-24T06:53:19;13.90;99.90
1083;DHT22;530;51.448;7.238;2022-09-24T06:55:45;13.90;99.90
1083;DHT22;530;51.448;7.238;2022-09-24T06:58:19;13.90;99.90
1083;DHT22;530;51.448;7.238;2022-09-24T07:00:52;13.90;99.90
1083;DHT22;530;51.448;7.238;2022-09-24T07:03:18;13.90;99.90
1083;DHT22;530;51.448;7.238;2022-09-24T07:05:44;14.00;99.90
1083;DHT22;530;51.448;7.238;2022-09-24T07:08:10;14.00;99.90
1083;DHT22;530;51.448;7.238;2022-09-24T07:10:36;14.10;99.90
1083;DHT22;530;51.448;7.238;2022-09-24T07:13:02;14.10;99.90
1083;DHT22;530;51.448;7.238;2022-09-24T07:15:28;14.10;99.90
1083;DHT22;530;51.448;7.238;2022-09-24T07:17:55;14.20;99.90
1083;DHT22;530;51.448;7.238;2022-09-24T07:20:20;14.20;99.90
1083;DHT22;530;51.448;7.238;2022-09-24T07:22:46;14.30;99.90
1083;DHT22;530;51.448;7.238;2022-09-24T07:25:12;14.30;99.90
1083;DHT22;530;51.448;7.238;2022-09-24T07:27:38;14.40;99.90
1083;DHT22;530;51.448;7.238;2022-09-24T07:30:05;14.40;99.90
1083;DHT22;530;51.448;7.238;2022-09-24T07:32:31;14.40;99.90
1083;DHT22;530;51.448;7.238;2022-09-24T07:34:57;14.50;99.90
1083;DHT22;530;51.448;7.238;2022-09-24T07:37:23;14.50;99.90
1083;DHT22;530;51.448;7.238;2022-09-24T07:39:48;14.60;99.90
1083;DHT22;530;51.448;7.238;2022-09-24T07:42:14;14.60;99.90
1083;DHT22;530;51.448;7.238;2022-09-24T07:44:39;14.70;99.90
1083;DHT22;530;51.448;7.238;2022-09-24T07:47:05;14.70;99.90
1083;DHT22;530;51.448;7.238;2022-09-24T07:49:31;14.70;99.90
1083;DHT22;530;51.448;7.238;2022-09-24T07:51:58;14.70;99.90
1083;DHT22;530;51.448;7.238;2022-09-24T07:54:24;14.80;99.90
1083;DHT22;530;51.448;7.238;2022-09-24T07:56:50;14.80;99.90
1083;DHT22;530;51.448;7.238;2022-09-24T07:59:16;14.90;99.90
1083;DHT22;530;51.448;7.238;2022-09-24T08:01:44;14.80;99.90
1083;DHT22;530;51.448;7.238;2022-09-24T08:04:09;14.90;99.90
1083;DHT22;530;51.448;7.238;2022-09-24T08:06:35;14.90;99.90
1083;DHT22;530;51.448;7.238;2022-09-24T08:09:01;15.00;99.90
1083;DHT22;530;51.448;7.238;2022-09-24T08:11:27;15.00;99.90
1083;DHT22;530;51.448;7.238;2022-09-24T08:13:55;15.00;99.90
1083;DHT22;530;51.448;7.238;2022-09-24T08:16:22;15.10;99.90
1083;DHT22;530;51.448;7.238;2022-09-24T08:18:48;15.10;99.90
1083;DHT22;530;51.448;7.238;2022-09-24T08:21:14;15.10;99.90
1083;DHT22;530;51.448;7.238;2022-09-24T08:23:40;15.00;99.90
1083;DHT22;530;51.448;7.238;2022-09-24T08:26:07;15.00;99.90
1083;DHT22;530;51.448;7.238;2022-09-24T08:28:33;15.00;99.90
1083;DHT22;530;51.448;7.238;2022-09-24T08:31:03;14.90;99.90
1083;DHT22;530;51.448;7.238;2022-09-24T08:33:32;15.00;99.90
1083;DHT22;530;51.448;7.238;2022-09-24T08:35:58;15.00;99.90
1083;DHT22;530;51.448;7.238;2022-09-24T08:38:24;15.10;99.90
1083;DHT22;530;51.448;7.238;2022-09-24T08:41:19;15.20;99.90
1083;DHT22;530;51.448;7.238;2022-09-24T08:44:14;15.20;99.90
1083;DHT22;530;51.448;7.238;2022-09-24T08:47:06;15.20;99.90
1083;DHT22;530;51.448;7.238;2022-09-24T08:50:02;15.20;99.90
1083;DHT22;530;51.448;7.238;2022-09-24T08:55:30;15.40;99.90
1083;DHT22;530;51.448;7.238;2022-09-24T09:03:34;15.50;99.90
1083;DHT22;530;51.448;7.238;2022-09-24T09:06:03;15.60;99.90
1083;DHT22;530;51.448;7.238;2022-09-24T09:08:51;15.60;99.90
1083;DHT22;530;51.448;7.238;2022-09-24T09:11:22;15.60;99.90
1083;DHT22;530;51.448;7.238;2022-09-24T09:14:02;15.80;99.90
1083;DHT22;530;51.448;7.238;2022-09-24T09:19:03;16.00;99.90
1083;DHT22;530;51.448;7.238;2022-09-24T09:21:38;16.10;99.90
1083;DHT22;530;51.448;7.238;2022-09-24T09:24:15;16.20;99.90
1083;DHT22;530;51.448;7.238;2022-09-24T09:26:46;16.30;99.90
1083;DHT22;530;51.448;7.238;2022-09-24T09:29:13;16.20;99.90
1083;DHT22;530;51.448;7.238;2022-09-24T09:43:06;16.10;99.90
1083;DHT22;530;51.448;7.238;2022-09-24T09:46:08;16.20;99.90
1083;DHT22;530;51.448;7.238;2022-09-24T09:51:25;16.20;99.90
1083;DHT22;530;51.448;7.238;2022-09-24T09:56:26;16.30;99.90
1083;DHT22;530;51.448;7.238;2022-09-24T09:59:22;16.20;99.90
1083;DHT22;530;51.448;7.238;2022-09-24T10:01:49;16.20;99.90
1083;DHT22;530;51.448;7.238;2022-09-24T10:04:39;16.30;99.90
1083;DHT22;530;51.448;7.238;2022-09-24T10:07:14;16.30;99.90
1083;DHT22;530;51.448;7.238;2022-09-24T10:09:41;16.30;99.90
1083;DHT22;530;51.448;7.238;2022-09-24T10:12:14;16.30;99.90
1083;DHT22;530;51.448;7.238;2022-09-24T10:14:41;16.30;99.90
1083;DHT22;530;51.448;7.238;2022-09-24T10:17:12;16.30;99.90
1083;DHT22;530;51.448;7.238;2022-09-24T10:19:39;16.40;99.90
1083;DHT22;530;51.448;7.238;2022-09-24T10:22:19;16.40;99.90
1083;DHT22;530;51.448;7.238;2022-09-24T10:24:46;16.50;99.90
1083;DHT22;530;51.448;7.238;2022-09-24T10:27:18;16.50;99.90
1083;DHT22;530;51.448;7.238;2022-09-24T10:29:52;16.60;99.90
1083;DHT22;530;51.448;7.238;2022-09-24T10:32:37;16.60;99.90
1083;DHT22;530;51.448;7.238;2022-09-24T10:35:19;16.60;99.90
1083;DHT22;530;51.448;7.238;2022-09-24T10:37:53;16.70;99.90
1083;DHT22;530;51.448;7.238;2022-09-24T10:40:22;16.70;99.90
1083;DHT22;530;51.448;7.238;2022-09-24T10:43:00;16.80;99.90
1083;DHT22;530;51.448;7.238;2022-09-24T10:48:43;16.90;99.90
1083;DHT22;530;51.448;7.238;2022-09-24T10:56:52;17.10;99.90
1083;DHT22;530;51.448;7.238;2022-09-24T11:02:37;17.10;99.90
1083;DHT22;530;51.448;7.238;2022-09-24T11:05:23;17.20;99.90
1083;DHT22;530;51.448;7.238;2022-09-24T11:08:11;17.20;99.90
1083;DHT22;530;51.448;7.238;2022-09-24T11:13:44;17.20;99.90
1083;DHT22;530;51.448;7.238;2022-09-24T11:22:10;17.40;99.90
1083;DHT22;530;51.448;7.238;2022-09-24T11:30:18;17.50;99.90
1083;DHT22;530;51.448;7.238;2022-09-24T11:37:58;17.30;99.90
1083;DHT22;530;51.448;7.238;2022-09-24T11:43:41;17.10;99.90
1083;DHT22;530;51.448;7.238;2022-09-24T11:52:34;17.20;99.90
1083;DHT22;530;51.448;7.238;2022-09-24T11:55:26;17.20;99.90
1083;DHT22;530;51.448;7.238;2022-09-24T11:58:05;17.20;99.90
1083;DHT22;530;51.448;7.238;2022-09-24T12:00:41;17.20;99.90
1083;DHT22;530;51.448;7.238;2022-09-24T12:03:35;17.20;99.90
1083;DHT22;530;51.448;7.238;2022-09-24T12:06:10;17.10;99.90
1083;DHT22;530;51.448;7.238;2022-09-24T12:09:01;17.10;99.90
1083;DHT22;530;51.448;7.238;2022-09-24T12:11:38;17.00;99.90
1083;DHT22;530;51.448;7.238;2022-09-24T12:16:42;17.00;99.90
1083;DHT22;530;51.448;7.238;2022-09-24T12:19:20;17.00;99.90
1083;DHT22;530;51.448;7.238;2022-09-24T12:21:49;17.00;99.90
1083;DHT22;530;51.448;7.238;2022-09-24T12:24:36;17.00;99.90
1083;DHT22;530;51.448;7.238;2022-09-24T12:27:09;17.10;99.90
1083;DHT22;530;51.448;7.238;2022-09-24T12:29:55;17.00;99.90
1083;DHT22;530;51.448;7.238;2022-09-24T12:32:58;17.10;99.90
1083;DHT22;530;51.448;7.238;2022-09-24T12:35:48;17.20;99.90
1083;DHT22;530;51.448;7.238;2022-09-24T12:38:44;17.30;99.90
1083;DHT22;530;51.448;7.238;2022-09-24T12:41:20;17.50;99.90
1083;DHT22;530;51.448;7.238;2022-09-24T12:46:42;17.60;99.90
1083;DHT22;530;51.448;7.238;2022-09-24T12:51:55;17.70;99.90
1083;DHT22;530;51.448;7.238;2022-09-24T12:57:19;17.60;99.90
1083;DHT22;530;51.448;7.238;2022-09-24T13:02:44;17.60;99.90
1083;DHT22;530;51.448;7.238;2022-09-24T13:05:23;17.60;99.90
1083;DHT22;530;51.448;7.238;2022-09-24T13:10:33;17.50;99.90
1083;DHT22;530;51.448;7.238;2022-09-24T13:13:20;17.40;99.90
1083;DHT22;530;51.448;7.238;2022-09-24T13:15:58;17.30;99.90
1083;DHT22;530;51.448;7.238;2022-09-24T13:18:24;17.20;99.90
1083;DHT22;530;51.448;7.238;2022-09-24T13:21:02;17.10;99.90
1083;DHT22;530;51.448;7.238;2022-09-24T13:23:43;17.10;99.90
1083;DHT22;530;51.448;7.238;2022-09-24T13:26:13;17.10;99.90
1083;DHT22;530;51.448;7.238;2022-09-24T13:31:26;17.10;99.90
1083;DHT22;530;51.448;7.238;2022-09-24T13:34:17;17.10;99.90
1083;DHT22;530;51.448;7.238;2022-09-24T13:36:57;17.10;99.90
1083;DHT22;530;51.448;7.238;2022-09-24T13:44:58;17.00;99.90
1083;DHT22;530;51.448;7.238;2022-09-24T13:47:37;17.00;99.90
1083;DHT22;530;51.448;7.238;2022-09-24T13:55:42;17.00;99.90
1083;DHT22;530;51.448;7.238;2022-09-24T13:58:28;17.10;99.90
1083;DHT22;530;51.448;7.238;2022-09-24T14:00:54;17.10;99.90
1083;DHT22;530;51.448;7.238;2022-09-24T14:03:31;17.00;99.90
1083;DHT22;530;51.448;7.238;2022-09-24T14:05:58;16.90;99.90
1083;DHT22;530;51.448;7.238;2022-09-24T14:08:26;16.80;99.90
1083;DHT22;530;51.448;7.238;2022-09-24T14:11:04;16.80;99.90
1083;DHT22;530;51.448;7.238;2022-09-24T14:13:34;16.70;99.90
1083;DHT22;530;51.448;7.238;2022-09-24T14:16:12;16.60;99.90
1083;DHT22;530;51.448;7.238;2022-09-24T14:18:38;16.60;99.90
1083;DHT22;530;51.448;7.238;2022-09-24T14:21:15;16.60;99.90
1083;DHT22;530;51.448;7.238;2022-09-24T14:24:05;16.60;99.90
1083;DHT22;530;51.448;7.238;2022-09-24T14:26:54;16.60;99.90
1083;DHT22;530;51.448;7.238;2022-09-24T14:29:33;16.60;99.90
1083;DHT22;530;51.448;7.238;2022-09-24T14:32:05;16.50;99.90
1083;DHT22;530;51.448;7.238;2022-09-24T14:34:34;16.50;99.90
1083;DHT22;530;51.448;7.238;2022-09-24T14:37:22;16.60;99.90
1083;DHT22;530;51.448;7.238;2022-09-24T14:39:50;16.50;99.90
1083;DHT22;530;51.448;7.238;2022-09-24T14:42:35;16.40;99.90
1083;DHT22;530;51.448;7.238;2022-09-24T14:45:04;16.50;99.90
1083;DHT22;530;51.448;7.238;2022-09-24T14:47:33;16.50;99.90
1083;DHT22;530;51.448;7.238;2022-09-24T14:49:59;16.50;99.90
1083;DHT22;530;51.448;7.238;2022-09-24T14:52:36;16.40;99.90
1083;DHT22;530;51.448;7.238;2022-09-24T14:55:18;16.30;99.90
1083;DHT22;530;51.448;7.238;2022-09-24T14:57:46;16.30;99.90
1083;DHT22;530;51.448;7.238;2022-09-24T15:00:36;16.30;99.90
1083;DHT22;530;51.448;7.238;2022-09-24T15:03:15;16.20;99.90
1083;DHT22;530;51.448;7.238;2022-09-24T15:05:41;16.20;99.90
1083;DHT22;530;51.448;7.238;2022-09-24T15:10:53;16.20;99.90
1083;DHT22;530;51.448;7.238;2022-09-24T15:13:23;16.20;99.90
1083;DHT22;530;51.448;7.238;2022-09-24T15:16:26;16.20;99.90
1083;DHT22;530;51.448;7.238;2022-09-24T15:19:15;16.20;99.90
1083;DHT22;530;51.448;7.238;2022-09-24T15:21:42;16.20;99.90
1083;DHT22;530;51.448;7.238;2022-09-24T15:24:08;16.30;99.90
1083;DHT22;530;51.448;7.238;2022-09-24T15:26:36;16.20;99.90
1083;DHT22;530;51.448;7.238;2022-09-24T15:29:03;16.10;99.90
1083;DHT22;530;51.448;7.238;2022-09-24T15:31:29;16.00;99.90
1083;DHT22;530;51.448;7.238;2022-09-24T15:33:55;15.90;99.90
1083;DHT22;530;51.448;7.238;2022-09-24T15:36:21;15.90;99.90
1083;DHT22;530;51.448;7.238;2022-09-24T15:38:51;16.00;99.90
1083;DHT22;530;51.448;7.238;2022-09-24T15:41:18;16.00;99.90
1083;DHT22;530;51.448;7.238;2022-09-24T15:43:44;16.10;99.90
1083;DHT22;530;51.448;7.238;2022-09-24T15:46:10;16.20;99.90
1083;DHT22;530;51.448;7.238;2022-09-24T15:48:36;16.10;99.90
1083;DHT22;530;51.448;7.238;2022-09-24T15:51:03;16.10;99.90
1083;DHT22;530;51.448;7.238;2022-09-24T15:53:29;16.00;99.90
1083;DHT22;530;51.448;7.238;2022-09-24T15:55:59;15.90;99.90
1083;DHT22;530;51.448;7.238;2022-09-24T15:58:26;15.90;99.90
1083;DHT22;530;51.448;7.238;2022-09-24T16:00:52;15.90;99.90
1083;DHT22;530;51.448;7.238;2022-09-24T16:03:21;16.00;99.90
1083;DHT22;530;51.448;7.238;2022-09-24T16:05:48;16.00;99.90
1083;DHT22;530;51.448;7.238;2022-09-24T16:08:14;16.00;99.90
1083;DHT22;530;51.448;7.238;2022-09-24T16:10:40;15.90;99.90
1083;DHT22;530;51.448;7.238;2022-09-24T16:13:06;15.90;99.90
1083;DHT22;530;51.448;7.238;2022-09-24T16:15:33;15.90;99.90
1083;DHT22;530;51.448;7.238;2022-09-24T16:17:58;15.90;99.90
1083;DHT22;530;51.448;7.238;2022-09-24T16:20:24;15.90;99.90
1083;DHT22;530;51.448;7.238;2022-09-24T16:22:50;15.90;99.90
1083;DHT22;530;51.448;7.238;2022-09-24T16:25:16;15.90;99.90
1083;DHT22;530;51.448;7.238;2022-09-24T16:27:41;15.80;99.90
1083;DHT22;530;51.448;7.238;2022-09-24T16:30:09;15.80;99.90
1083;DHT22;530;51.448;7.238;2022-09-24T16:32:34;15.80;99.90
1083;DHT22;530;51.448;7.238;2022-09-24T16:35:00;15.70;99.90
1083;DHT22;530;51.448;7.238;2022-09-24T16:37:26;15.80;99.90
1083;DHT22;530;51.448;7.238;2022-09-24T16:39:52;15.70;99.90
1083;DHT22;530;51.448;7.238;2022-09-24T16:42:18;15.70;99.90
1083;DHT22;530;51.448;7.238;2022-09-24T16:44:43;15.70;99.90
1083;DHT22;530;51.448;7.238;2022-09-24T16:47:09;15.70;99.90
1083;DHT22;530;51.448;7.238;2022-09-24T16:49:35;15.60;99.90
1083;DHT22;530;51.448;7.238;2022-09-24T16:52:00;15.70;99.90
1083;DHT22;530;51.448;7.238;2022-09-24T16:54:27;15.60;99.90
1083;DHT22;530;51.448;7.238;2022-09-24T16:56:54;15.60;99.90
1083;DHT22;530;51.448;7.238;2022-09-24T16:59:22;15.60;99.90
1083;DHT22;530;51.448;7.238;2022-09-24T17:01:47;15.60;99.90
1083;DHT22;530;51.448;7.238;2022-09-24T17:04:13;15.60;99.90
1083;DHT22;530;51.448;7.238;2022-09-24T17:06:39;15.50;99.90
1083;DHT22;530;51.448;7.238;2022-09-24T17:09:06;15.50;99.90
1083;DHT22;530;51.448;7.238;2022-09-24T17:11:50;15.50;99.90
1083;DHT22;530;51.448;7.238;2022-09-24T17:14:16;15.40;99.90
1083;DHT22;530;51.448;7.238;2022-09-24T17:16:43;15.40;99.90
1083;DHT22;530;51.448;7.238;2022-09-24T17:19:09;15.40;99.90
1083;DHT22;530;51.448;7.238;2022-09-24T17:21:37;15.30;99.90
1083;DHT22;530;51.448;7.238;2022-09-24T17:24:03;15.30;99.90
1083;DHT22;530;51.448;7.238;2022-09-24T17:26:29;15.30;99.90
1083;DHT22;530;51.448;7.238;2022-09-24T17:28:55;15.40;99.90
1083;DHT22;530;51.448;7.238;2022-09-24T17:31:22;15.40;99.90
1083;DHT22;530;51.448;7.238;2022-09-24T17:33:55;15.40;99.90
1083;DHT22;530;51.448;7.238;2022-09-24T17:36:21;15.40;99.90
1083;DHT22;530;51.448;7.238;2022-09-24T17:38:47;15.40;99.90
1083;DHT22;530;51.448;7.238;2022-09-24T17:41:13;15.40;99.90
1083;DHT22;530;51.448;7.238;2022-09-24T17:43:40;15.40;99.90
1083;DHT22;530;51.448;7.238;2022-09-24T17:46:11;15.30;99.90
1083;DHT22;530;51.448;7.238;2022-09-24T17:48:39;15.30;99.90
1083;DHT22;530;51.448;7.238;2022-09-24T17:51:08;15.30;99.90
1083;DHT22;530;51.448;7.238;2022-09-24T17:53:35;15.20;99.90
1083;DHT22;530;51.448;7.238;2022-09-24T17:56:02;15.30;99.90
1083;DHT22;530;51.448;7.238;2022-09-24T17:58:28;15.20;99.90
1083;DHT22;530;51.448;7.238;2022-09-24T18:00:54;15.20;99.90
1083;DHT22;530;51.448;7.238;2022-09-24T18:03:26;15.10;99.90
1083;DHT22;530;51.448;7.238;2022-09-24T18:05:59;15.10;99.90
1083;DHT22;530;51.448;7.238;2022-09-24T18:08:25;15.10;99.90
1083;DHT22;530;51.448;7.238;2022-09-24T18:11:05;15.10;99.90
1083;DHT22;530;51.448;7.238;2022-09-24T18:13:32;15.10;99.90
1083;DHT22;530;51.448;7.238;2022-09-24T18:16:07;15.10;99.90
1083;DHT22;530;51.448;7.238;2022-09-24T18:18:34;15.10;99.90
1083;DHT22;530;51.448;7.238;2022-09-24T18:21:00;15.10;99.90
1083;DHT22;530;51.448;7.238;2022-09-24T18:23:26;15.10;99.90
1083;DHT22;530;51.448;7.238;2022-09-24T18:25:53;15.00;99.90
1083;DHT22;530;51.448;7.238;2022-09-24T18:28:20;15.00;99.90
1083;DHT22;530;51.448;7.238;2022-09-24T18:30:46;15.00;99.90
1083;DHT22;530;51.448;7.238;2022-09-24T18:33:11;15.00;99.90
1083;DHT22;530;51.448;7.238;2022-09-24T18:35:37;14.90;99.90
1083;DHT22;530;51.448;7.238;2022-09-24T18:38:02;15.00;99.90